Time;durP1;ratioP1;P1;durP2;ratioP2;P2;SDS_P1;SDS_P2;PMS_P1;PMS_P2;Temp;Humidity;BMP_temperature;BMP_pressure;BME280_temperature;BME280_humidity;BME280_pressure;Samples;Min_cycle;Max_cycle;Signal;HPM_P1;HPM_P2
2022/03/19 00:00:26;;;;;;;26.57;10.23;;;;;;;-3.02;46.52;103192.69;123590;1099;104335;-83
2022/03/19 00:03:11;;;;;;;23.27;10.13;;;;;;;-3.06;46.66;103193.94;123481;1099;104216;-83
2022/03/19 00:05:44;;;;;;;22.75;8.90;;;;;;;-3.09;46.21;103194.44;123596;1099;104309;-83
2022/03/19 00:08:17;;;;;;;27.05;10.03;;;;;;;-3.13;46.01;103184.50;123585;1099;104315;-83
2022/03/19 00:10:52;;;;;;;23.13;9.30;;;;;;;-3.15;46.26;103183.34;123693;1099;104370;-83
2022/03/19 00:13:25;;;;;;;24.35;9.05;;;;;;;-3.16;45.71;103185.75;123623;1099;104293;-83
2022/03/19 00:15:57;;;;;;;19.67;8.57;;;;;;;-3.19;46.73;103180.20;123626;1099;104306;-83
2022/03/19 00:18:31;;;;;;;22.33;9.13;;;;;;;-3.20;46.87;103188.61;123696;1099;104316;-83
2022/03/19 00:21:03;;;;;;;23.20;8.20;;;;;;;-3.23;47.05;103183.06;123682;1099;104265;-84
2022/03/19 00:23:36;;;;;;;21.07;9.40;;;;;;;-3.23;46.74;103183.06;123704;1099;104344;-84
2022/03/19 00:26:10;;;;;;;23.00;9.07;;;;;;;-3.23;47.43;103167.66;123782;1099;104693;-83
2022/03/19 00:28:43;;;;;;;21.10;8.30;;;;;;;-3.22;46.85;103173.00;123677;1099;104316;-83
2022/03/19 00:31:16;;;;;;;21.97;8.90;;;;;;;-3.25;46.77;103175.16;123701;1099;104313;-83
2022/03/19 00:33:48;;;;;;;22.77;9.27;;;;;;;-3.30;46.56;103171.97;123667;1099;104386;-83
2022/03/19 00:36:20;;;;;;;24.47;8.77;;;;;;;-3.34;46.88;103164.56;123810;1099;104294;-84
2022/03/19 00:38:54;;;;;;;20.07;8.43;;;;;;;-3.36;46.94;103167.67;123735;1099;104329;-84
2022/03/19 00:41:27;;;;;;;22.55;8.53;;;;;;;-3.39;47.06;103168.17;123911;1099;104341;-83
2022/03/19 00:44:00;;;;;;;25.70;9.85;;;;;;;-3.40;46.75;103161.17;123755;1098;104239;-83
2022/03/19 00:46:33;;;;;;;24.55;8.93;;;;;;;-3.42;46.73;103170.33;123758;1099;104249;-83
2022/03/19 00:49:06;;;;;;;20.87;8.10;;;;;;;-3.42;47.43;103165.19;123643;1099;104348;-84
2022/03/19 00:51:39;;;;;;;23.02;9.08;;;;;;;-3.44;47.36;103161.50;123702;1099;104303;-83
2022/03/19 00:54:12;;;;;;;21.97;9.50;;;;;;;-3.46;47.51;103170.62;123646;1099;104332;-84
2022/03/19 00:56:47;;;;;;;22.03;9.50;;;;;;;-3.50;47.04;103168.38;123642;1099;104338;-83
2022/03/19 00:59:17;;;;;;;;;;;;;;;-3.58;47.63;103151.00;123768;1098;104230;-83
2022/03/19 01:01:49;;;;;;;22.83;9.33;;;;;;;-3.52;46.68;103157.91;123649;1098;104313;-84
2022/03/19 01:04:21;;;;;;;22.87;9.23;;;;;;;-3.52;46.92;103156.95;123589;1098;104270;-84
2022/03/19 01:06:53;;;;;;;22.20;9.27;;;;;;;-3.51;47.17;103163.95;123674;1098;104252;-83
2022/03/19 01:09:52;;;;;;;23.73;9.27;;;;;;;-3.50;46.92;103163.25;123569;1098;104258;-84
2022/03/19 01:12:25;;;;;;;24.00;9.20;;;;;;;-3.51;47.77;103170.00;123796;1098;104268;-84
2022/03/19 01:14:58;;;;;;;23.17;10.20;;;;;;;-3.54;47.92;103158.41;123589;1097;104270;-83
2022/03/19 01:17:31;;;;;;;23.47;9.90;;;;;;;-3.58;47.94;103154.52;123644;1099;104316;-83
2022/03/19 01:20:02;;;;;;;22.80;9.55;;;;;;;-3.63;47.61;103161.59;123655;1099;104290;-84
2022/03/19 01:22:35;;;;;;;24.63;9.67;;;;;;;-3.67;47.64;103156.75;123664;1099;104360;-84
2022/03/19 01:25:10;;;;;;;24.37;9.80;;;;;;;-3.70;47.44;103160.55;123704;1099;104256;-82
2022/03/19 01:27:44;;;;;;;21.70;9.57;;;;;;;-3.74;47.87;103169.48;123639;1099;104497;-83
2022/03/19 01:30:16;;;;;;;;;;;;;;;-3.76;50.08;103163.20;123419;1099;104239;-83
2022/03/19 01:32:51;;;;;;;21.83;8.17;;;;;;;-3.77;48.23;103157.86;123882;1099;104242;-83
2022/03/19 01:35:24;;;;;;;22.23;9.20;;;;;;;-3.81;47.95;103164.23;123697;1099;104306;-83
2022/03/19 01:37:56;;;;;;;24.27;10.23;;;;;;;-3.82;48.01;103163.31;123666;1099;104683;-83
2022/03/19 01:40:29;;;;;;;24.60;9.53;;;;;;;-3.82;47.76;103154.67;123582;1099;104284;-83
2022/03/19 01:43:02;;;;;;;20.33;8.20;;;;;;;-3.81;48.61;103161.66;123581;1099;107621;-83
2022/03/19 01:45:34;;;;;;;24.77;8.63;;;;;;;-3.81;48.50;103156.53;123596;1099;104236;-83
2022/03/19 01:48:08;;;;;;;20.03;8.10;;;;;;;-3.83;48.02;103161.45;123544;1099;104726;-84
2022/03/19 01:50:40;;;;;;;25.03;8.97;;;;;;;-3.84;48.51;103162.16;123598;1099;104334;-82
2022/03/19 01:53:12;;;;;;;22.63;9.07;;;;;;;-3.84;48.14;103163.81;123593;1099;104344;-83
2022/03/19 01:55:44;;;;;;;22.20;9.20;;;;;;;-3.86;48.56;103165.26;123454;1099;104405;-83
2022/03/19 01:58:17;;;;;;;20.75;8.85;;;;;;;-3.90;48.48;103162.98;123520;1099;104239;-82
2022/03/19 02:00:50;;;;;;;22.97;9.03;;;;;;;-3.95;48.71;103161.44;123533;1098;104335;-82
2022/03/19 02:03:23;;;;;;;21.70;8.00;;;;;;;-4.00;48.41;103163.38;123609;1099;104345;-82
2022/03/19 02:05:56;;;;;;;20.63;8.57;;;;;;;-4.04;48.24;103161.09;123647;1099;104329;-82
2022/03/19 02:08:32;;;;;;;22.07;8.20;;;;;;;-4.07;48.53;103166.72;123627;1099;104242;-83
2022/03/19 02:11:06;;;;;;;23.85;8.90;;;;;;;-4.10;48.86;103170.52;123653;1099;104322;-84
2022/03/19 02:13:39;;;;;;;20.40;8.57;;;;;;;-4.12;48.84;103172.87;123917;1098;110470;-84
2022/03/19 02:16:12;;;;;;;20.55;8.45;;;;;;;-4.16;49.16;103173.15;123590;1099;104229;-83
2022/03/19 02:18:45;;;;;;;21.47;8.63;;;;;;;-4.18;49.30;103167.81;123562;1097;104341;-83
2022/03/19 02:21:17;;;;;;;21.50;8.70;;;;;;;-4.21;48.99;103166.47;123637;1097;104300;-82
2022/03/19 02:26:51;;;;;;;19.87;8.60;;;;;;;-4.24;49.10;103169.56;123659;1099;104261;-82
2022/03/19 02:29:26;;;;;;;22.87;8.43;;;;;;;-4.24;49.11;103168.62;123836;1099;104288;-83
2022/03/19 02:31:59;;;;;;;22.83;8.63;;;;;;;-4.25;49.85;103171.92;123688;1099;104454;-84
2022/03/19 02:34:33;;;;;;;24.27;9.15;;;;;;;-4.25;49.21;103164.23;123617;1097;104262;-84
2022/03/19 02:37:06;;;;;;;20.70;8.85;;;;;;;-4.24;49.72;103171.19;123584;1099;104354;-83
2022/03/19 02:39:39;;;;;;;22.02;8.98;;;;;;;-4.31;49.77;103164.30;123452;1099;104441;-83
2022/03/19 02:42:11;;;;;;;22.10;8.70;;;;;;;-4.34;50.21;103164.78;123568;1097;104217;-84
2022/03/19 02:44:44;;;;;;;22.37;8.90;;;;;;;-4.37;50.07;103166.92;123480;1098;104300;-83
2022/03/19 02:47:17;;;;;;;20.70;8.73;;;;;;;-4.39;50.35;103170.93;123539;1099;104252;-83
2022/03/19 02:49:49;;;;;;;22.20;9.00;;;;;;;-4.41;50.27;103164.67;123532;1099;104345;-83
2022/03/19 02:52:23;;;;;;;22.25;8.95;;;;;;;-4.43;50.64;103170.30;123481;1099;104338;-83
2022/03/19 02:54:53;;;;;;;;;;;;;;;-4.46;51.50;103167.30;123572;1099;104715;-82
2022/03/19 02:57:26;;;;;;;22.43;8.47;;;;;;;-4.47;50.54;103170.57;123684;1099;104309;-83
2022/03/19 02:59:58;;;;;;;24.07;9.10;;;;;;;-4.49;50.49;103167.80;124154;1099;104316;-83
2022/03/19 03:02:30;;;;;;;20.97;8.93;;;;;;;-4.49;50.50;103172.92;124054;1099;104159;-83
2022/03/19 03:05:02;;;;;;;23.63;8.87;;;;;;;-4.50;50.34;103171.09;123865;1099;104232;-83
2022/03/19 03:07:34;;;;;;;22.40;9.10;;;;;;;-4.52;50.29;103172.49;123680;1099;104336;-83
2022/03/19 03:10:08;;;;;;;22.23;9.37;;;;;;;-4.54;50.35;103173.93;123620;1099;104325;-83
2022/03/19 03:12:41;;;;;;;18.67;7.00;;;;;;;-4.55;50.59;103174.63;123709;1099;104245;-83
2022/03/19 03:15:15;;;;;;;22.10;9.27;;;;;;;-4.56;50.20;103176.28;123886;1099;104299;-83
2022/03/19 03:17:51;;;;;;;22.60;9.10;;;;;;;-4.58;50.74;103179.33;123721;1099;104344;-83
2022/03/19 03:20:24;;;;;;;22.27;8.93;;;;;;;-4.59;50.67;103180.06;123835;1099;104322;-83
2022/03/19 03:22:56;;;;;;;22.80;8.47;;;;;;;-4.61;50.86;103172.16;123722;1099;104319;-83
2022/03/19 03:25:29;;;;;;;21.87;9.20;;;;;;;-4.61;50.83;103186.59;123595;1099;104412;-83
2022/03/19 03:28:01;;;;;;;23.13;9.07;;;;;;;-4.62;50.58;103179.64;123789;1099;104347;-83
2022/03/19 03:30:34;;;;;;;23.85;9.45;;;;;;;-4.63;51.11;103188.03;123690;1098;104447;-83
2022/03/19 03:33:05;;;;;;;22.83;9.60;;;;;;;-4.63;50.94;103182.90;123742;1099;104938;-83
2022/03/19 03:35:37;;;;;;;19.80;7.93;;;;;;;-4.63;51.82;103185.46;123550;1099;104370;-83
2022/03/19 03:38:10;;;;;;;20.03;8.87;;;;;;;-4.63;51.29;103198.27;123609;1099;104319;-83
2022/03/19 03:40:44;;;;;;;21.15;9.43;;;;;;;-4.64;51.18;103186.16;123913;1099;104319;-83
2022/03/19 03:43:16;;;;;;;26.57;8.37;;;;;;;-4.63;51.62;103193.15;123710;1099;104342;-83
2022/03/19 03:45:50;;;;;;;19.82;8.48;;;;;;;-4.65;51.61;103190.38;123727;1099;104290;-83
2022/03/19 03:48:23;;;;;;;22.50;8.60;;;;;;;-4.65;51.39;103190.38;123541;1098;104370;-83
2022/03/19 03:50:58;;;;;;;22.00;9.00;;;;;;;-4.67;51.48;103195.98;123753;1099;104366;-83
2022/03/19 03:53:31;;;;;;;21.97;8.60;;;;;;;-4.68;51.75;103199.28;123736;1099;104338;-83
2022/03/19 03:56:03;;;;;;;25.30;9.10;;;;;;;-4.67;51.48;103195.98;123781;1099;104350;-83
2022/03/19 03:58:36;;;;;;;23.83;8.50;;;;;;;-4.66;52.00;103201.32;123762;1099;105382;-83
2022/03/19 04:01:09;;;;;;;22.93;9.50;;;;;;;-4.66;52.20;103205.53;123643;1099;104444;-83
2022/03/19 04:03:41;;;;;;;24.27;8.93;;;;;;;-4.66;52.63;103218.34;123500;1099;104331;-83
2022/03/19 04:06:12;;;;;;;21.30;8.87;;;;;;;-4.67;52.64;103213.92;123548;1099;104811;-83
2022/03/19 04:08:44;;;;;;;23.97;9.07;;;;;;;-4.68;52.73;103222.34;123466;1099;104385;-83
2022/03/19 04:11:16;;;;;;;22.65;8.80;;;;;;;-4.71;53.38;103221.17;123636;1099;104290;-83
2022/03/19 04:13:50;;;;;;;28.63;9.77;;;;;;;-4.73;52.48;103222.61;123652;1098;104296;-83
2022/03/19 04:16:22;;;;;;;24.00;9.60;;;;;;;-4.71;52.52;103225.39;123606;1099;107028;-84
2022/03/19 04:18:55;;;;;;;23.03;9.57;;;;;;;-4.71;53.18;103227.95;123674;1099;104287;-83
2022/03/19 04:21:28;;;;;;;23.63;8.67;;;;;;;-4.68;53.79;103224.91;123739;1099;104284;-82
2022/03/19 04:24:01;;;;;;;23.30;10.17;;;;;;;-4.69;53.60;103231.64;123619;1099;104349;-83
2022/03/19 04:26:34;;;;;;;25.77;9.80;;;;;;;-4.70;52.61;103230.73;123617;1099;104313;-83
2022/03/19 04:29:09;;;;;;;26.13;10.03;;;;;;;-4.71;52.78;103231.42;123572;1099;104287;-83
2022/03/19 04:31:43;;;;;;;28.90;10.20;;;;;;;-4.71;53.17;103236.55;123726;1099;104245;-83
2022/03/19 04:34:15;;;;;;;25.40;10.23;;;;;;;-4.71;52.85;103241.67;123847;1099;104299;-83
2022/03/19 04:36:49;;;;;;;24.97;10.10;;;;;;;-4.69;52.86;103239.33;124198;1099;104249;-83
2022/03/19 04:39:21;;;;;;;27.80;11.00;;;;;;;-4.67;52.74;103245.62;124168;1099;104325;-84
2022/03/19 04:41:53;;;;;;;25.57;10.13;;;;;;;-4.67;52.92;103242.11;124153;1099;104277;-83
2022/03/19 04:44:26;;;;;;;25.53;10.33;;;;;;;-4.66;52.79;103250.01;124211;1099;104262;-83
2022/03/19 04:47:00;;;;;;;24.50;10.47;;;;;;;-4.63;53.02;103257.21;123854;1099;104309;-84
2022/03/19 04:49:34;;;;;;;25.90;9.98;;;;;;;-4.63;54.32;103259.77;124103;1099;104379;-84
2022/03/19 04:52:14;;;;;;;26.57;10.77;;;;;;;-4.63;53.65;103255.56;123486;1099;104377;-84
2022/03/19 04:54:46;;;;;;;29.37;11.50;;;;;;;-4.60;53.21;103261.13;123569;1099;104347;-83
2022/03/19 04:57:19;;;;;;;26.70;11.10;;;;;;;-4.57;54.04;103263.20;123475;1099;104332;-83
2022/03/19 04:59:51;;;;;;;25.23;10.17;;;;;;;-4.55;54.36;103256.64;123614;1099;104345;-83
2022/03/19 05:02:24;;;;;;;26.63;10.90;;;;;;;-4.52;53.23;103260.58;123525;1099;104351;-83
2022/03/19 05:04:57;;;;;;;26.23;11.33;;;;;;;-4.48;54.23;103261.92;123647;1099;104335;-83
2022/03/19 05:07:35;;;;;;;25.80;10.47;;;;;;;-4.45;53.81;103256.31;123431;1099;107225;-82
2022/03/19 05:13:00;;;;;;;24.93;10.77;;;;;;;-4.36;54.43;103260.16;123520;1098;104386;-83
2022/03/19 05:15:33;;;;;;;25.85;10.20;;;;;;;-4.32;54.52;103269.20;123794;1099;105862;-83
2022/03/19 05:18:05;;;;;;;25.30;10.17;;;;;;;-4.28;54.50;103271.48;123638;1099;104451;-83
2022/03/19 05:20:38;;;;;;;24.13;10.67;;;;;;;-4.23;54.15;103276.52;123483;1099;104724;-82
2022/03/19 05:23:11;;;;;;;26.07;10.90;;;;;;;-4.19;54.71;103286.51;123575;1099;104233;-82
2022/03/19 05:25:46;;;;;;;27.03;11.17;;;;;;;-4.13;53.80;103281.28;124462;1099;104348;-83
2022/03/19 05:28:21;;;;;;;27.83;11.60;;;;;;;-4.05;54.69;103282.34;124243;1099;104312;-82
2022/03/19 05:30:52;;;;;;;;;;;;;;;-3.98;55.17;103285.97;124149;1099;104303;-82
2022/03/19 05:34:29;;;;;;;26.07;11.03;;;;;;;-3.89;53.76;103291.47;124128;1099;104367;-83
2022/03/19 05:36:20;;;;;;;27.05;11.25;;;;;;;-3.79;53.93;103296.22;123971;1098;104307;-84
2022/03/19 05:38:53;;;;;;;26.60;12.00;;;;;;;-3.71;53.76;103293.09;123745;1099;104271;-84
2022/03/19 05:41:26;;;;;;;25.97;11.27;;;;;;;-3.63;53.72;103289.92;123788;1099;104268;-84
2022/03/19 05:43:58;;;;;;;27.87;11.63;;;;;;;-3.54;54.92;103286.75;123811;1099;104358;-83
2022/03/19 05:46:30;;;;;;;31.07;12.40;;;;;;;-3.46;54.63;103286.15;123927;1099;104267;-84
2022/03/19 05:49:06;;;;;;;27.47;11.53;;;;;;;-3.40;54.13;103291.20;123929;1099;104270;-84
2022/03/19 05:51:40;;;;;;;29.40;12.10;;;;;;;-3.34;54.33;103290.39;123584;1099;104219;-84
2022/03/19 05:54:11;;;;;;;;;;;;;;;-3.28;54.27;103292.88;123909;1099;104235;-84
2022/03/19 05:56:44;;;;;;;27.43;12.13;;;;;;;-3.20;53.86;103294.83;123683;1099;104351;-83
2022/03/19 05:59:19;;;;;;;33.53;14.43;;;;;;;-3.07;53.96;103303.49;123714;1099;104445;-83
2022/03/19 06:01:52;;;;;;;30.57;11.87;;;;;;;-2.93;54.16;103299.27;123849;1099;104352;-83
2022/03/19 06:04:25;;;;;;;27.53;10.83;;;;;;;-2.80;54.09;103289.02;123743;1099;104253;-83
2022/03/19 06:06:58;;;;;;;28.87;11.47;;;;;;;-2.68;54.06;103287.14;123868;1099;104315;-84
2022/03/19 06:09:33;;;;;;;28.32;11.50;;;;;;;-2.57;54.37;103287.86;123754;1099;104201;-84
2022/03/19 06:12:06;;;;;;;24.33;10.40;;;;;;;-2.48;54.08;103284.64;124087;1099;104689;-83
2022/03/19 06:14:40;;;;;;;27.55;10.50;;;;;;;-2.36;54.55;103288.84;123598;1099;104245;-84
2022/03/19 06:17:13;;;;;;;25.82;9.98;;;;;;;-2.26;53.71;103297.06;123476;1099;104332;-84
2022/03/19 06:19:50;;;;;;;27.07;10.80;;;;;;;-2.10;54.26;103301.63;123862;1099;104261;-84
2022/03/19 06:22:25;;;;;;;26.43;11.37;;;;;;;-1.94;54.62;103299.43;123755;1099;104262;-85
2022/03/19 06:25:00;;;;;;;27.47;10.90;;;;;;;-1.86;54.12;103304.83;123816;1098;104319;-85
2022/03/19 06:27:41;;;;;;;25.40;10.80;;;;;;;-1.73;54.30;103303.86;123599;1099;104335;-84
2022/03/19 06:30:18;;;;;;;24.93;9.50;;;;;;;-1.65;53.92;103304.14;123446;1099;104354;-84
2022/03/19 06:32:51;;;;;;;29.40;11.40;;;;;;;-1.57;53.38;103318.01;123859;1099;104329;-84
2022/03/19 06:38:13;;;;;;;25.13;10.73;;;;;;;-1.35;53.28;103305.33;123505;1099;104204;-85
2022/03/19 06:40:46;;;;;;;25.37;10.70;;;;;;;-1.25;53.91;103304.84;123445;1099;104348;-84
2022/03/19 06:43:19;;;;;;;28.92;10.90;;;;;;;-1.15;54.21;103307.87;123526;1099;104411;-84
2022/03/19 06:45:54;;;;;;;26.33;11.43;;;;;;;-1.03;53.49;103306.83;123233;1099;104361;-83
2022/03/19 06:48:27;;;;;;;25.90;9.85;;;;;;;-0.95;52.98;103306.17;123235;1098;104348;-84
2022/03/19 06:51:03;;;;;;;24.43;10.73;;;;;;;-0.84;53.61;103304.95;123315;1099;104437;-84
2022/03/19 06:53:38;;;;;;;25.63;10.37;;;;;;;-0.74;52.71;103301.88;123289;1102;104437;-84
2022/03/19 06:56:12;;;;;;;27.85;11.40;;;;;;;-0.60;53.61;103301.03;123267;1099;104420;-84
2022/03/19 06:58:46;;;;;;;24.27;10.33;;;;;;;-0.49;52.80;103290.39;123226;1102;105605;-83
2022/03/19 07:01:18;;;;;;;25.00;9.83;;;;;;;-0.38;52.37;103294.31;123256;1100;104508;-85
2022/03/19 07:03:51;;;;;;;27.70;10.60;;;;;;;-0.22;52.59;103297.13;123190;1099;104371;-84
2022/03/19 07:06:26;;;;;;;23.90;10.17;;;;;;;-0.09;53.11;103299.59;123412;1102;104344;-84
2022/03/19 07:09:04;;;;;;;24.40;9.90;;;;;;;0.03;51.39;103302.74;123365;1099;104395;-84
2022/03/19 07:11:41;;;;;;;24.90;9.53;;;;;;;0.12;52.20;103298.70;123325;1100;104357;-84
2022/03/19 07:14:17;;;;;;;21.30;9.87;;;;;;;0.21;52.60;103296.34;123268;1102;104650;-84
2022/03/19 07:16:51;;;;;;;24.53;10.03;;;;;;;0.34;52.36;103297.08;124018;1099;104382;-83
2022/03/19 07:19:27;;;;;;;21.50;8.53;;;;;;;0.53;52.12;103292.47;123648;1099;104322;-84
2022/03/19 07:22:00;;;;;;;18.50;7.10;;;;;;;0.67;49.73;103301.89;123592;1099;104328;-83
2022/03/19 07:24:36;;;;;;;17.43;7.10;;;;;;;0.73;49.47;103297.45;123597;1099;104233;-84
2022/03/19 07:27:10;;;;;;;18.73;7.17;;;;;;;0.77;49.68;103299.68;124056;1098;105006;-82
2022/03/19 07:29:46;;;;;;;20.80;7.17;;;;;;;0.89;48.96;103290.81;123911;1099;104303;-82
2022/03/19 07:32:18;;;;;;;19.87;7.00;;;;;;;0.91;47.16;103292.67;123876;1099;104469;-83
2022/03/19 07:34:54;;;;;;;18.00;7.20;;;;;;;1.06;49.37;103294.46;123907;1099;104265;-84
2022/03/19 07:37:27;;;;;;;18.97;6.73;;;;;;;1.22;47.36;103292.05;124009;1099;104411;-83
2022/03/19 07:40:03;;;;;;;16.40;6.67;;;;;;;1.36;48.89;103285.92;124337;1099;104267;-83
2022/03/19 07:42:37;;;;;;;18.97;6.10;;;;;;;1.50;47.50;103290.13;123694;1102;104328;-82
2022/03/19 07:45:12;;;;;;;16.27;6.10;;;;;;;1.51;45.54;103300.66;123994;1099;104242;-83
2022/03/19 07:47:44;;;;;;;15.00;6.40;;;;;;;1.35;45.46;103297.91;123595;1099;104421;-83
2022/03/19 07:50:18;;;;;;;16.00;6.53;;;;;;;1.36;46.05;103291.09;123365;1102;104499;-83
2022/03/19 07:52:52;;;;;;;16.95;6.92;;;;;;;1.38;47.14;103285.33;123429;1099;104421;-83
2022/03/19 07:55:24;;;;;;;;;;;;;;;1.37;44.36;103282.56;123563;1099;104255;-83
2022/03/19 07:57:59;;;;;;;18.43;7.00;;;;;;;1.53;47.11;103274.95;123443;1099;104329;-84
2022/03/19 08:00:33;;;;;;;15.57;6.47;;;;;;;1.64;46.60;103274.52;123301;1099;104457;-83
2022/03/19 08:03:12;;;;;;;18.50;6.40;;;;;;;1.59;44.65;103280.81;123320;1099;104374;-83
2022/03/19 08:05:44;;;;;;;12.77;5.23;;;;;;;1.58;43.09;103289.34;123283;1099;104332;-82
2022/03/19 08:08:17;;;;;;;13.90;4.95;;;;;;;1.58;43.53;103284.16;123178;1099;104418;-83
2022/03/19 08:10:51;;;;;;;16.77;5.73;;;;;;;1.55;44.23;103279.54;123219;1099;104402;-83
2022/03/19 08:13:23;;;;;;;14.83;5.67;;;;;;;1.64;44.69;103274.52;123280;1099;104481;-83
2022/03/19 08:15:56;;;;;;;13.83;5.30;;;;;;;1.66;44.01;103266.94;123235;1102;104462;-83
2022/03/19 08:18:30;;;;;;;16.73;5.57;;;;;;;1.77;44.18;103270.00;123348;1099;104549;-84
2022/03/19 08:21:04;;;;;;;11.80;4.80;;;;;;;1.86;42.12;103271.83;123477;1099;104341;-83
2022/03/19 08:23:37;;;;;;;11.77;4.43;;;;;;;2.01;45.19;103258.06;123595;1099;104728;-85
2022/03/19 08:26:11;;;;;;;12.60;5.20;;;;;;;2.17;44.92;103263.31;123478;1099;104267;-83
2022/03/19 08:28:42;;;;;;;;;;;;;;;2.21;42.46;103261.98;123613;1098;104398;-84
2022/03/19 08:31:17;;;;;;;12.67;5.00;;;;;;;2.26;43.95;103261.77;123628;1098;104325;-84
2022/03/19 08:33:51;;;;;;;15.97;5.30;;;;;;;2.35;43.66;103261.86;123597;1099;104364;-84
2022/03/19 08:36:26;;;;;;;14.83;5.40;;;;;;;2.39;42.24;103258.88;123548;1099;104341;-83
2022/03/19 08:41:52;;;;;;;12.30;4.93;;;;;;;2.55;41.82;103239.87;123574;1099;104309;-83
2022/03/19 08:44:24;;;;;;;9.40;4.07;;;;;;;2.36;39.27;103263.72;123767;1099;104370;-83
2022/03/19 08:46:56;;;;;;;11.40;4.90;;;;;;;2.29;40.62;103253.39;123464;1099;104367;-82
2022/03/19 08:49:29;;;;;;;9.87;4.73;;;;;;;2.31;41.04;103249.33;123634;1099;104325;-83
2022/03/19 08:52:01;;;;;;;20.00;7.20;;;;;;;2.26;40.54;103241.03;123630;1099;104300;-84
2022/03/19 08:54:34;;;;;;;15.37;5.63;;;;;;;2.37;40.11;103256.85;123714;1099;104374;-84
2022/03/19 08:57:07;;;;;;;10.60;4.67;;;;;;;2.30;40.32;103244.88;123540;1099;104252;-83
2022/03/19 08:59:40;;;;;;;14.87;4.70;;;;;;;2.42;40.79;103238.49;123618;1099;104415;-82
2022/03/19 09:02:13;;;;;;;12.45;5.00;;;;;;;2.50;40.79;103250.63;123576;1099;104294;-82
2022/03/19 09:04:47;;;;;;;15.58;5.25;;;;;;;2.40;39.64;103237.41;123669;1099;104248;-83
2022/03/19 09:07:19;;;;;;;14.77;5.73;;;;;;;2.53;40.79;103241.38;123757;1098;104239;-84
2022/03/19 09:09:53;;;;;;;11.53;4.73;;;;;;;2.66;40.35;103234.20;123919;1099;104505;-83
2022/03/19 09:12:27;;;;;;;10.60;4.40;;;;;;;2.67;38.64;103241.24;123792;1099;104277;-83
2022/03/19 09:15:01;;;;;;;12.70;5.20;;;;;;;2.72;40.44;103229.70;123842;1099;104252;-83
2022/03/19 09:17:33;;;;;;;;;;;;;;;2.74;38.89;103232.47;123671;1099;104386;-83
2022/03/19 09:20:10;;;;;;;15.70;5.07;;;;;;;2.72;39.51;103240.08;123550;1099;104389;-83
2022/03/19 09:22:44;;;;;;;14.07;5.23;;;;;;;2.64;39.29;103230.53;123578;1099;118127;-82
2022/03/19 09:25:14;;;;;;;;;;;;;;;2.77;40.22;103222.43;123627;1099;104274;-83
2022/03/19 09:27:46;;;;;;;14.20;4.57;;;;;;;2.84;38.70;103223.28;123611;1099;104348;-83
2022/03/19 09:30:19;;;;;;;11.53;4.60;;;;;;;2.99;39.98;103220.52;123574;1096;104647;-83
2022/03/19 09:32:56;;;;;;;12.17;4.20;;;;;;;2.93;38.67;103219.85;123552;1099;104277;-82
2022/03/19 09:35:29;;;;;;;12.50;4.50;;;;;;;2.97;39.16;103216.85;123526;1099;104319;-83
2022/03/19 09:38:02;;;;;;;10.70;4.87;;;;;;;3.11;39.42;103218.37;123418;1099;104308;-83
2022/03/19 09:40:36;;;;;;;12.73;4.90;;;;;;;3.18;39.95;103208.83;123808;1099;104268;-83
2022/03/19 09:43:09;;;;;;;10.37;4.47;;;;;;;3.22;38.34;103215.26;123902;1099;111348;-83
2022/03/19 09:45:43;;;;;;;16.17;5.63;;;;;;;3.12;39.34;103204.66;123610;1099;104409;-84
2022/03/19 09:48:16;;;;;;;14.58;4.72;;;;;;;3.11;39.85;103214.09;123998;1099;104245;-83
2022/03/19 09:50:54;;;;;;;10.33;4.80;;;;;;;3.16;39.35;103207.72;123572;1099;104261;-83
2022/03/19 09:53:30;;;;;;;9.60;4.60;;;;;;;3.21;39.49;103209.16;123799;1099;104347;-83
2022/03/19 09:56:04;;;;;;;16.10;5.07;;;;;;;3.28;38.47;103205.55;123708;1099;104405;-83
2022/03/19 09:58:38;;;;;;;9.93;4.70;;;;;;;3.38;37.44;103192.83;123742;1099;104265;-83
2022/03/19 10:01:12;;;;;;;9.97;4.10;;;;;;;3.46;37.77;103201.44;124015;1099;104245;-81
2022/03/19 10:03:46;;;;;;;12.45;4.33;;;;;;;3.53;37.28;103196.13;123728;1099;108268;-82
2022/03/19 10:09:19;;;;;;;10.30;3.90;;;;;;;3.69;38.04;103187.38;123874;1099;104392;-83
2022/03/19 10:11:54;;;;;;;9.37;4.20;;;;;;;3.71;36.61;103179.01;123781;1099;104265;-82
2022/03/19 10:14:29;;;;;;;9.57;3.90;;;;;;;3.87;37.39;103171.16;123955;1099;104418;-84
2022/03/19 10:17:02;;;;;;;9.67;3.40;;;;;;;3.97;37.05;103178.23;123775;1099;104396;-82
2022/03/19 10:19:54;;;;;;;11.53;4.03;;;;;;;3.99;35.33;103175.79;124025;1099;104271;-82
2022/03/19 10:22:32;;;;;;;10.07;3.80;;;;;;;4.05;37.23;103174.78;124444;1099;104239;-83
2022/03/19 10:25:10;;;;;;;8.57;4.20;;;;;;;4.04;36.48;103170.33;124505;1099;104268;-82
2022/03/19 10:27:44;;;;;;;9.45;4.20;;;;;;;4.11;35.87;103161.48;125125;1099;104473;-83
2022/03/19 10:30:21;;;;;;;6.43;3.50;;;;;;;4.09;35.65;103168.22;124150;1098;104367;-84
2022/03/19 10:32:57;;;;;;;9.80;4.07;;;;;;;4.14;36.98;103162.75;123963;1099;104290;-83
2022/03/19 10:35:32;;;;;;;9.60;4.07;;;;;;;4.20;37.27;103162.45;124159;1099;104271;-82
2022/03/19 10:38:17;;;;;;;7.00;3.73;;;;;;;4.26;36.88;103146.58;124451;1099;104717;-81
2022/03/19 10:40:55;;;;;;;10.70;3.97;;;;;;;4.39;37.25;103151.36;124776;1099;104417;-82
2022/03/19 10:43:34;;;;;;;10.00;3.70;;;;;;;4.26;35.60;103155.28;124606;1099;104322;-81
2022/03/19 10:46:09;;;;;;;8.53;3.53;;;;;;;4.09;34.67;103155.22;124040;1099;104427;-82
2022/03/19 10:48:43;;;;;;;10.27;4.30;;;;;;;4.18;35.52;103137.98;124839;1099;104801;-82
2022/03/19 10:51:17;;;;;;;10.30;4.00;;;;;;;4.24;35.80;103143.83;123895;1099;104235;-83
2022/03/19 10:53:55;;;;;;;6.30;3.60;;;;;;;4.35;34.87;103143.99;124125;1099;104316;-84
2022/03/19 10:56:28;;;;;;;11.70;3.93;;;;;;;4.53;35.97;103140.69;123901;1099;104306;-83
2022/03/19 10:59:02;;;;;;;10.10;3.80;;;;;;;4.62;36.22;103139.03;124160;1098;104739;-82
2022/03/19 11:01:38;;;;;;;11.50;3.60;;;;;;;4.76;36.52;103129.12;125351;1099;104165;-82
2022/03/19 11:04:15;;;;;;;14.13;3.57;;;;;;;4.76;34.65;103140.43;125467;1099;104261;-84
2022/03/19 11:06:56;;;;;;;9.53;3.30;;;;;;;4.71;35.92;103130.34;124684;1099;104358;-83
2022/03/19 11:09:48;;;;;;;8.27;3.53;;;;;;;4.75;35.83;103124.67;124366;1099;104517;-83
2022/03/19 11:12:27;;;;;;;10.67;3.87;;;;;;;4.87;36.54;103123.31;125287;1098;104267;-83
2022/03/19 11:15:05;;;;;;;10.13;4.83;;;;;;;4.88;34.15;103127.77;123953;1099;104348;-83
2022/03/19 11:17:47;;;;;;;10.00;4.40;;;;;;;4.83;35.82;103114.28;124546;1099;104287;-83
2022/03/19 11:20:22;;;;;;;9.58;4.22;;;;;;;4.88;34.38;103130.36;123738;1099;104248;-83
2022/03/19 11:23:07;;;;;;;9.03;3.80;;;;;;;4.81;35.04;103112.28;124084;1099;104412;-83
2022/03/19 11:25:52;;;;;;;8.90;3.57;;;;;;;4.70;34.58;103115.49;124084;1099;104696;-83
2022/03/19 11:28:26;;;;;;;12.07;4.43;;;;;;;4.81;35.84;103113.19;125035;1099;104305;-83
2022/03/19 11:31:08;;;;;;;9.50;3.70;;;;;;;4.94;34.60;103101.41;124811;1099;104385;-83
2022/03/19 11:33:42;;;;;;;9.70;3.87;;;;;;;4.86;33.77;103108.45;124070;1099;104482;-83
2022/03/19 11:36:15;;;;;;;9.88;4.03;;;;;;;4.76;34.27;103109.22;124029;1099;104293;-84
2022/03/19 11:39:00;;;;;;;13.03;4.23;;;;;;;4.77;34.31;103103.27;123984;1099;104210;-83
2022/03/19 11:42:05;;;;;;;9.30;4.10;;;;;;;4.90;34.59;103104.50;124667;1099;104261;-82
2022/03/19 11:44:52;;;;;;;9.93;4.00;;;;;;;5.06;34.57;103102.64;125524;1099;104184;-83
2022/03/19 11:47:38;;;;;;;7.97;3.73;;;;;;;5.10;34.09;103096.98;124424;1098;104383;-82
2022/03/19 11:50:26;;;;;;;8.23;3.57;;;;;;;5.13;32.05;103098.98;124632;1099;104286;-83
2022/03/19 11:53:09;;;;;;;13.70;4.50;;;;;;;5.11;32.84;103096.23;123945;1099;104297;-82